createdAt,value
2016-05-21T00:00:59.279Z,1009.49
2016-05-21T00:01:59.266Z,1009.45
2016-05-21T00:02:59.237Z,1009.52
2016-05-21T00:03:59.225Z,1009.45
2016-05-21T00:04:59.196Z,1009.48
2016-05-21T00:05:59.183Z,1009.44
2016-05-21T00:06:59.154Z,1009.46
2016-05-21T00:07:59.126Z,1009.47
2016-05-21T00:08:59.113Z,1009.45
2016-05-21T00:09:59.085Z,1009.45
2016-05-21T00:10:59.368Z,1009.46
2016-05-21T00:11:59.055Z,1009.44
2016-05-21T00:12:59.058Z,1009.39
2016-05-21T00:13:59.045Z,1009.38
2016-05-21T00:14:59.047Z,1009.37
2016-05-21T00:15:59.035Z,1009.4
2016-05-21T00:16:59.015Z,1009.36
2016-05-21T00:17:59.007Z,1009.37
2016-05-21T00:18:58.985Z,1009.4
2016-05-21T00:19:58.977Z,1009.35
2016-05-21T00:20:58.970Z,1009.36
2016-05-21T00:21:58.944Z,1009.38
2016-05-21T00:22:58.919Z,1009.38
2016-05-21T00:23:58.892Z,1009.37
2016-05-21T00:24:58.882Z,1009.34
2016-05-21T00:25:58.980Z,1009.35
2016-05-21T00:26:58.843Z,1009.36
2016-05-21T00:27:58.816Z,1009.36
2016-05-21T00:28:58.803Z,1009.34
2016-05-21T00:29:58.775Z,1009.32
2016-05-21T00:30:58.763Z,1009.25
2016-05-21T00:31:58.735Z,1009.29
2016-05-21T00:32:58.723Z,1009.3
2016-05-21T00:33:58.693Z,1009.27
2016-05-21T00:34:58.665Z,1009.29
2016-05-21T00:35:58.653Z,1009.28
2016-05-21T00:36:58.623Z,1009.3
2016-05-21T00:37:58.611Z,1009.3
2016-05-21T00:38:58.582Z,1009.28
2016-05-21T00:39:58.569Z,1009.25
2016-05-21T00:40:58.541Z,1009.27
2016-05-21T00:41:58.512Z,1009.25
2016-05-21T00:42:58.499Z,1009.25
2016-05-21T00:43:58.470Z,1009.25
2016-05-21T00:44:58.457Z,1009.3
2016-05-21T00:45:58.430Z,1009.3
2016-05-21T00:46:58.417Z,1009.31
2016-05-21T00:47:58.388Z,1009.28
2016-05-21T00:48:58.375Z,1009.28
2016-05-21T00:49:58.346Z,1009.24
2016-05-21T00:50:58.318Z,1009.22
2016-05-21T00:51:58.305Z,1009.23
2016-05-21T00:52:58.276Z,1009.2
2016-05-21T00:53:58.263Z,1009.25
2016-05-21T00:54:58.234Z,1009.26
2016-05-21T00:55:58.409Z,1009.23
2016-05-21T00:56:58.193Z,1009.21
2016-05-21T00:57:58.179Z,1009.21
2016-05-21T00:58:58.151Z,1009.2
2016-05-21T00:59:58.138Z,1009.2
2016-05-21T01:00:58.110Z,1009.16
2016-05-21T01:01:58.098Z,1009.15
2016-05-21T01:02:58.068Z,1009.16
2016-05-21T01:03:58.040Z,1009.16
2016-05-21T01:04:58.027Z,1009.14
2016-05-21T01:05:57.998Z,1009.14
2016-05-21T01:06:57.970Z,1009.09
2016-05-21T01:07:57.957Z,1009.11
2016-05-21T01:08:57.928Z,1009.08
2016-05-21T01:09:57.915Z,1009.11
2016-05-21T01:10:57.886Z,1009.07
2016-05-21T01:11:57.874Z,1009.06
2016-05-21T01:12:57.845Z,1009.09
2016-05-21T01:13:57.832Z,1009.1
2016-05-21T01:14:57.804Z,1009.1
2016-05-21T01:15:57.775Z,1009.13
2016-05-21T01:16:57.763Z,1009.09
2016-05-21T01:17:57.734Z,1009.1
2016-05-21T01:18:57.705Z,1009.09
2016-05-21T01:19:57.692Z,1009.11
2016-05-21T01:20:57.680Z,1009.08
2016-05-21T01:21:57.651Z,1009.09
2016-05-21T01:22:57.622Z,1009.12
2016-05-21T01:23:57.610Z,1009.1
2016-05-21T01:24:57.580Z,1009.11
2016-05-21T01:25:57.568Z,1009.08
2016-05-21T01:26:57.539Z,1009.07
2016-05-21T01:27:57.510Z,1009.09
2016-05-21T01:28:57.498Z,1009.09
2016-05-21T01:29:57.469Z,1009.11
2016-05-21T01:30:57.457Z,1009.07
2016-05-21T01:31:57.428Z,1009.07
2016-05-21T01:32:57.415Z,1009.06
2016-05-21T01:33:57.387Z,1009.07
2016-05-21T01:34:57.357Z,1009.09
2016-05-21T01:35:57.345Z,1009.11
2016-05-21T01:36:57.317Z,1009.08
2016-05-21T01:37:57.287Z,1009.11
2016-05-21T01:38:57.275Z,1009.09
2016-05-21T01:39:57.246Z,1009.08
2016-05-21T01:40:57.295Z,1009.07
2016-05-21T01:41:57.205Z,1009.09
2016-05-21T01:42:57.176Z,1009.1
2016-05-21T01:43:57.164Z,1009.09
2016-05-21T01:44:57.135Z,1009.07
2016-05-21T01:45:57.122Z,1009.09
2016-05-21T01:46:57.094Z,1009.11
2016-05-21T01:47:57.064Z,1009.11
2016-05-21T01:48:57.052Z,1009.07
2016-05-21T01:49:57.023Z,1009.09
2016-05-21T01:50:57.010Z,1009.08
2016-05-21T01:51:56.982Z,1009.08
2016-05-21T01:52:56.968Z,1009.06
2016-05-21T01:53:56.940Z,1009.09
2016-05-21T01:54:56.911Z,1009.04
2016-05-21T01:55:56.914Z,1009.07
2016-05-21T01:56:56.871Z,1009.06
2016-05-21T01:57:56.857Z,1009.01
2016-05-21T01:58:56.829Z,1009.03
2016-05-21T01:59:56.800Z,1009.04
2016-05-21T02:00:56.771Z,1009.06
2016-05-21T02:01:56.759Z,1009.07
2016-05-21T02:02:56.729Z,1009.05
2016-05-21T02:03:56.717Z,1009.09
2016-05-21T02:04:56.688Z,1009.13
2016-05-21T02:05:56.675Z,1009.09
2016-05-21T02:06:56.647Z,1009.11
2016-05-21T02:07:56.618Z,1009.1
2016-05-21T02:08:56.605Z,1009.1
2016-05-21T02:09:56.576Z,1009.12
2016-05-21T02:10:56.548Z,1009.1
2016-05-21T02:11:56.536Z,1009.09
2016-05-21T02:12:56.507Z,1009.1
2016-05-21T02:13:56.494Z,1009.1
2016-05-21T02:14:56.465Z,1009.08
2016-05-21T02:15:56.453Z,1009.09
2016-05-21T02:16:56.424Z,1009.07
2016-05-21T02:17:56.395Z,1009.07
2016-05-21T02:18:56.366Z,1009.04
2016-05-21T02:19:56.353Z,1009.08
2016-05-21T02:20:56.325Z,1009.07
2016-05-21T02:21:56.313Z,1009.06
2016-05-21T02:22:56.283Z,1009.04
2016-05-21T02:23:56.255Z,1009.02
2016-05-21T02:24:56.258Z,1009.03
2016-05-21T02:25:56.214Z,1009.04
2016-05-21T02:26:56.185Z,1009.05
2016-05-21T02:27:56.171Z,1009.05
2016-05-21T02:28:56.144Z,1009.01
2016-05-21T02:29:56.130Z,1009
2016-05-21T02:30:56.102Z,1009.02
2016-05-21T02:31:56.074Z,1008.95
2016-05-21T02:32:56.060Z,1008.97
2016-05-21T02:33:56.032Z,1008.93
2016-05-21T02:34:56.003Z,1008.95
2016-05-21T02:35:55.991Z,1008.91
2016-05-21T02:36:55.961Z,1008.89
2016-05-21T02:37:55.934Z,1008.91
2016-05-21T02:38:55.921Z,1008.94
2016-05-21T02:39:55.892Z,1008.95
2016-05-21T02:40:55.879Z,1008.93
2016-05-21T02:41:55.850Z,1008.94
2016-05-21T02:42:55.837Z,1008.93
2016-05-21T02:43:55.809Z,1008.94
2016-05-21T02:44:55.780Z,1008.93
2016-05-21T02:45:55.752Z,1008.9
2016-05-21T02:46:55.738Z,1008.92
2016-05-21T02:47:55.710Z,1008.9
2016-05-21T02:48:55.697Z,1008.87
2016-05-21T02:49:55.669Z,1008.88
2016-05-21T02:50:55.641Z,1008.87
2016-05-21T02:51:55.627Z,1008.88
2016-05-21T02:52:55.661Z,1008.91
2016-05-21T02:53:55.570Z,1008.89
2016-05-21T02:54:55.619Z,1008.88
2016-05-21T02:55:55.529Z,1008.89
2016-05-21T02:56:55.516Z,1008.91
2016-05-21T02:57:55.487Z,1008.86
2016-05-21T02:58:55.458Z,1008.86
2016-05-21T02:59:55.446Z,1008.87
2016-05-21T03:00:55.418Z,1008.85
2016-05-21T03:01:55.388Z,1008.85
2016-05-21T03:02:55.375Z,1008.87
2016-05-21T03:03:55.347Z,1008.84
2016-05-21T03:04:55.334Z,1008.86
2016-05-21T03:05:55.306Z,1008.87
2016-05-21T03:06:55.276Z,1008.83
2016-05-21T03:07:55.264Z,1008.85
2016-05-21T03:08:55.235Z,1008.85
2016-05-21T03:09:55.223Z,1008.84
2016-05-21T03:10:55.334Z,1008.84
2016-05-21T03:11:55.165Z,1008.84
2016-05-21T03:12:55.137Z,1008.85
2016-05-21T03:13:55.123Z,1008.82
2016-05-21T03:14:55.095Z,1008.82
2016-05-21T03:15:55.067Z,1008.83
2016-05-21T03:16:55.053Z,1008.83
2016-05-21T03:17:55.025Z,1008.81
2016-05-21T03:18:54.997Z,1008.81
2016-05-21T03:19:54.983Z,1008.84
2016-05-21T03:20:54.956Z,1008.79
2016-05-21T03:21:54.942Z,1008.82
2016-05-21T03:22:54.914Z,1008.81
2016-05-21T03:23:54.886Z,1008.79
2016-05-21T03:24:54.857Z,1008.8
2016-05-21T03:25:54.844Z,1008.84
2016-05-21T03:26:54.815Z,1008.83
2016-05-21T03:27:54.787Z,1008.83
2016-05-21T03:28:54.774Z,1008.86
2016-05-21T03:29:54.745Z,1008.88
2016-05-21T03:30:54.732Z,1008.89
2016-05-21T03:31:54.704Z,1008.94
2016-05-21T03:32:54.690Z,1008.94
2016-05-21T03:33:54.662Z,1008.95
2016-05-21T03:34:54.634Z,1008.94
2016-05-21T03:35:54.621Z,1008.94
2016-05-21T03:36:54.607Z,1008.91
2016-05-21T03:37:54.563Z,1008.95
2016-05-21T03:38:54.551Z,1008.92
2016-05-21T03:39:54.522Z,1008.9
2016-05-21T03:40:54.493Z,1008.93
2016-05-21T03:41:54.481Z,1008.96
2016-05-21T03:42:54.451Z,1008.96
2016-05-21T03:43:54.423Z,1008.89
2016-05-21T03:44:54.411Z,1008.95
2016-05-21T03:45:54.381Z,1008.94
2016-05-21T03:46:54.353Z,1008.92
2016-05-21T03:47:54.340Z,1008.93
2016-05-21T03:48:54.312Z,1008.93
2016-05-21T03:49:54.299Z,1008.92
2016-05-21T03:50:54.270Z,1008.91
2016-05-21T03:51:54.242Z,1008.93
2016-05-21T03:52:54.228Z,1008.92
2016-05-21T03:53:54.200Z,1008.93
2016-05-21T03:54:54.188Z,1008.99
2016-05-21T03:55:54.158Z,1009.01
2016-05-21T03:56:54.130Z,1009.02
2016-05-21T03:57:54.117Z,1008.99
2016-05-21T03:58:54.089Z,1008.99
2016-05-21T03:59:54.060Z,1009.03
2016-05-21T04:00:54.047Z,1009.02
2016-05-21T04:01:54.018Z,1009.06
2016-05-21T04:02:53.990Z,1009.11
2016-05-21T04:03:53.977Z,1009.1
2016-05-21T04:04:53.949Z,1009.07
2016-05-21T04:05:53.935Z,1009.03
2016-05-21T04:06:53.907Z,1009.05
2016-05-21T04:07:53.879Z,1009.02
2016-05-21T04:08:53.850Z,1009
2016-05-21T04:09:53.837Z,1009
2016-05-21T04:10:53.918Z,1008.99
2016-05-21T04:11:53.795Z,1008.99
2016-05-21T04:12:53.782Z,1009
2016-05-21T04:13:53.754Z,1008.97
2016-05-21T04:14:53.726Z,1008.99
2016-05-21T04:15:53.698Z,1008.98
2016-05-21T04:16:53.684Z,1008.96
2016-05-21T04:17:53.656Z,1008.95
2016-05-21T04:18:53.627Z,1008.92
2016-05-21T04:19:53.614Z,1008.92
2016-05-21T04:20:53.586Z,1008.93
2016-05-21T04:21:53.557Z,1008.89
2016-05-21T04:22:53.544Z,1008.84
2016-05-21T04:23:53.516Z,1008.86
2016-05-21T04:24:53.502Z,1008.87
2016-05-21T04:25:53.475Z,1008.85
2016-05-21T04:26:54.101Z,1008.84
2016-05-21T04:27:53.432Z,1008.87
2016-05-21T04:28:53.404Z,1008.82
2016-05-21T04:29:53.391Z,1008.85
2016-05-21T04:30:53.363Z,1008.84
2016-05-21T04:31:53.349Z,1008.76
2016-05-21T04:32:53.321Z,1008.76
2016-05-21T04:33:53.292Z,1008.75
2016-05-21T04:34:53.279Z,1008.74
2016-05-21T04:35:53.251Z,1008.72
2016-05-21T04:36:53.237Z,1008.69
2016-05-21T04:37:53.210Z,1008.73
2016-05-21T04:38:53.196Z,1008.74
2016-05-21T04:39:53.168Z,1008.75
2016-05-21T04:40:53.155Z,1008.77
2016-05-21T04:41:53.126Z,1008.85
2016-05-21T04:42:53.098Z,1008.85
2016-05-21T04:43:53.084Z,1008.84
2016-05-21T04:44:53.056Z,1008.84
2016-05-21T04:45:53.028Z,1008.8
2016-05-21T04:46:53.015Z,1008.78
2016-05-21T04:47:52.986Z,1008.78
2016-05-21T04:48:52.973Z,1008.77
2016-05-21T04:49:52.945Z,1008.77
2016-05-21T04:50:52.932Z,1008.75
2016-05-21T04:51:52.903Z,1008.72
2016-05-21T04:52:52.875Z,1008.75
2016-05-21T04:53:52.861Z,1008.72
2016-05-21T04:54:52.833Z,1008.73
2016-05-21T04:55:52.820Z,1008.72
2016-05-21T04:56:52.792Z,1008.71
2016-05-21T04:57:52.778Z,1008.7
2016-05-21T04:58:52.749Z,1008.7
2016-05-21T04:59:52.722Z,1008.68
2016-05-21T05:00:52.708Z,1008.67
2016-05-21T05:01:52.696Z,1008.67
2016-05-21T05:02:52.666Z,1008.65
2016-05-21T05:03:52.654Z,1008.65
2016-05-21T05:04:52.626Z,1008.57
2016-05-21T05:05:52.613Z,1008.59
2016-05-21T05:06:52.584Z,1008.59
2016-05-21T05:07:52.555Z,1008.6
2016-05-21T05:08:52.542Z,1008.59
2016-05-21T05:09:52.515Z,1008.6
2016-05-21T05:10:52.892Z,1008.62
2016-05-21T05:11:52.488Z,1008.64
2016-05-21T05:12:52.460Z,1008.67
2016-05-21T05:13:52.446Z,1008.6
2016-05-21T05:14:52.418Z,1008.64
2016-05-21T05:15:52.390Z,1008.64
2016-05-21T05:16:52.377Z,1008.7
2016-05-21T05:17:52.348Z,1008.65
2016-05-21T05:18:52.335Z,1008.7
2016-05-21T05:19:52.306Z,1008.68
2016-05-21T05:20:52.294Z,1008.67
2016-05-21T05:21:52.265Z,1008.69
2016-05-21T05:22:52.252Z,1008.71
2016-05-21T05:23:52.223Z,1008.68
2016-05-21T05:24:52.211Z,1008.68
2016-05-21T05:25:52.197Z,1008.66
2016-05-21T05:26:52.169Z,1008.69
2016-05-21T05:27:52.156Z,1008.66
2016-05-21T05:28:52.127Z,1008.67
2016-05-21T05:29:52.115Z,1008.69
2016-05-21T05:30:52.086Z,1008.67
2016-05-21T05:31:52.073Z,1008.68
2016-05-21T05:32:52.060Z,1008.67
2016-05-21T05:33:52.032Z,1008.64
2016-05-21T05:34:52.003Z,1008.67
2016-05-21T05:35:51.990Z,1008.65
2016-05-21T05:36:51.963Z,1008.66
2016-05-21T05:37:51.948Z,1008.66
2016-05-21T05:38:51.935Z,1008.67
2016-05-21T05:39:51.923Z,1008.61
2016-05-21T05:40:51.894Z,1008.61
2016-05-21T05:41:51.865Z,1008.66
2016-05-21T05:42:51.853Z,1008.64
2016-05-21T05:43:51.840Z,1008.65
2016-05-21T05:44:51.812Z,1008.66
2016-05-21T05:45:51.798Z,1008.65
2016-05-21T05:46:51.770Z,1008.65
2016-05-21T05:47:51.756Z,1008.62
2016-05-21T05:48:51.728Z,1008.62
2016-05-21T05:49:51.715Z,1008.64
2016-05-21T05:50:51.687Z,1008.63
2016-05-21T05:51:51.673Z,1008.65
2016-05-21T05:52:51.661Z,1008.67
2016-05-21T05:53:51.633Z,1008.67
2016-05-21T05:54:51.619Z,1008.66
2016-05-21T05:55:51.591Z,1008.67
2016-05-21T05:56:51.578Z,1008.66
2016-05-21T05:57:51.565Z,1008.68
2016-05-21T05:58:51.536Z,1008.66
2016-05-21T05:59:51.508Z,1008.67
2016-05-21T06:00:51.494Z,1008.67
2016-05-21T06:01:51.466Z,1008.66
2016-05-21T06:02:51.453Z,1008.68
2016-05-21T06:03:51.441Z,1008.75
2016-05-21T06:04:51.413Z,1008.74
2016-05-21T06:05:51.399Z,1008.72
2016-05-21T06:06:51.386Z,1008.78
2016-05-21T06:07:51.357Z,1008.74
2016-05-21T06:08:51.344Z,1008.79
2016-05-21T06:09:51.316Z,1008.78
2016-05-21T06:10:51.304Z,1008.76
2016-05-21T06:11:51.290Z,1008.77
2016-05-21T06:12:51.262Z,1008.78
2016-05-21T06:13:51.249Z,1008.82
2016-05-21T06:14:51.235Z,1008.8
2016-05-21T06:15:51.207Z,1008.77
2016-05-21T06:16:51.195Z,1008.83
2016-05-21T06:17:51.165Z,1008.84
2016-05-21T06:18:51.153Z,1008.82
2016-05-21T06:19:51.140Z,1008.85
2016-05-21T06:20:51.126Z,1008.87
2016-05-21T06:21:51.098Z,1008.85
2016-05-21T06:22:51.086Z,1008.9
2016-05-21T06:23:51.073Z,1008.88
2016-05-21T06:24:51.044Z,1008.83
2016-05-21T06:25:51.047Z,1008.86
2016-05-21T06:26:51.018Z,1008.91
2016-05-21T06:27:50.989Z,1008.93
2016-05-21T06:28:50.977Z,1008.92
2016-05-21T06:29:50.964Z,1008.9
2016-05-21T06:30:50.950Z,1008.9
2016-05-21T06:31:50.938Z,1008.93
2016-05-21T06:32:50.908Z,1008.88
2016-05-21T06:33:50.896Z,1008.87
2016-05-21T06:34:50.899Z,1008.83
2016-05-21T06:35:50.871Z,1008.86
2016-05-21T06:36:50.858Z,1008.84
2016-05-21T06:37:50.829Z,1008.85
2016-05-21T06:38:50.816Z,1008.82
2016-05-21T06:39:50.803Z,1008.85
2016-05-21T06:40:50.791Z,1008.87
2016-05-21T06:41:50.776Z,1008.83
2016-05-21T06:42:50.765Z,1008.86
2016-05-21T06:43:50.751Z,1008.81
2016-05-21T06:44:50.738Z,1008.89
2016-05-21T06:45:50.709Z,1008.91
2016-05-21T06:46:50.696Z,1008.93
2016-05-21T06:47:50.684Z,1008.93
2016-05-21T06:48:50.671Z,1008.92
2016-05-21T06:49:50.659Z,1008.9
2016-05-21T06:50:50.645Z,1008.95
2016-05-21T06:51:50.632Z,1008.9
2016-05-21T06:52:50.619Z,1008.98
2016-05-21T06:53:50.606Z,1008.95
2016-05-21T06:54:50.593Z,1008.92
2016-05-21T06:55:50.581Z,1008.86
2016-05-21T06:56:50.552Z,1008.88
2016-05-21T06:57:50.539Z,1008.86
2016-05-21T06:58:50.542Z,1008.91
2016-05-21T06:59:50.528Z,1008.91
2016-05-21T07:00:50.500Z,1008.89
2016-05-21T07:01:50.503Z,1008.88
2016-05-21T07:02:50.489Z,1008.9
2016-05-21T07:03:50.477Z,1008.88
2016-05-21T07:04:50.464Z,1008.79
2016-05-21T07:05:50.452Z,1008.77
2016-05-21T07:06:50.438Z,1008.74
2016-05-21T07:07:50.425Z,1008.81
2016-05-21T07:08:50.413Z,1008.76
2016-05-21T07:09:50.399Z,1008.79
2016-05-21T07:10:50.385Z,1008.81
2016-05-21T07:11:50.389Z,1008.83
2016-05-21T07:12:50.360Z,1008.83
2016-05-21T07:13:50.363Z,1008.83
2016-05-21T07:14:50.351Z,1008.84
2016-05-21T07:15:50.337Z,1008.87
2016-05-21T07:16:50.324Z,1008.85
2016-05-21T07:17:50.312Z,1008.84
2016-05-21T07:18:50.299Z,1008.9
2016-05-21T07:19:50.285Z,1008.86
2016-05-21T07:20:50.273Z,1008.86
2016-05-21T07:21:50.260Z,1008.84
2016-05-21T07:22:50.247Z,1008.85
2016-05-21T07:23:50.234Z,1008.89
2016-05-21T07:24:50.220Z,1008.87
2016-05-21T07:25:50.209Z,1008.83
2016-05-21T07:26:50.195Z,1008.9
2016-05-21T07:27:50.181Z,1008.9
2016-05-21T07:28:50.170Z,1008.84
2016-05-21T07:29:50.156Z,1008.88
2016-05-21T07:30:50.144Z,1008.85
2016-05-21T07:31:50.131Z,1008.88
2016-05-21T07:32:50.117Z,1008.86
2016-05-21T07:33:50.105Z,1008.87
2016-05-21T07:34:50.091Z,1008.9
2016-05-21T07:35:50.078Z,1008.92
2016-05-21T07:36:50.066Z,1008.95
2016-05-21T07:37:50.068Z,1008.83
2016-05-21T07:38:50.055Z,1008.82
2016-05-21T07:39:50.027Z,1008.87
2016-05-21T07:40:50.030Z,1008.89
2016-05-21T07:41:50.032Z,1008.86
2016-05-21T07:42:50.004Z,1008.86
2016-05-21T07:43:49.991Z,1008.91
2016-05-21T07:44:49.977Z,1008.86
2016-05-21T07:45:49.965Z,1008.81
2016-05-21T07:46:49.968Z,1008.85
2016-05-21T07:47:49.955Z,1008.82
2016-05-21T07:48:49.942Z,1008.8
2016-05-21T07:49:49.929Z,1008.79
2016-05-21T07:50:49.916Z,1008.79
2016-05-21T07:51:49.918Z,1008.8
2016-05-21T07:52:49.905Z,1008.81
2016-05-21T07:53:49.893Z,1008.77
2016-05-21T07:54:49.879Z,1008.8
2016-05-21T07:55:49.867Z,1008.82
2016-05-21T07:56:49.885Z,1008.83
2016-05-21T07:57:49.856Z,1008.74
2016-05-21T07:58:49.828Z,1008.76
2016-05-21T07:59:49.831Z,1008.74
2016-05-21T08:00:49.818Z,1008.77
2016-05-21T08:01:49.805Z,1008.77
2016-05-21T08:02:49.792Z,1008.77
2016-05-21T08:03:49.778Z,1008.8
2016-05-21T08:04:49.766Z,1008.78
2016-05-21T08:05:49.753Z,1008.86
2016-05-21T08:06:49.741Z,1008.82
2016-05-21T08:07:49.727Z,1008.84
2016-05-21T08:08:49.730Z,1008.82
2016-05-21T08:09:49.702Z,1008.81
2016-05-21T08:10:49.688Z,1008.78
2016-05-21T08:11:49.675Z,1008.78
2016-05-21T08:12:49.663Z,1008.75
2016-05-21T08:13:49.649Z,1008.77
2016-05-21T08:14:49.653Z,1008.77
2016-05-21T08:15:49.639Z,1008.76
2016-05-21T08:16:49.627Z,1008.8
2016-05-21T08:17:49.613Z,1008.79
2016-05-21T08:18:49.601Z,1008.8
2016-05-21T08:19:49.588Z,1008.8
2016-05-21T08:20:49.559Z,1008.79
2016-05-21T08:21:49.562Z,1008.78
2016-05-21T08:22:49.549Z,1008.81
2016-05-21T08:23:49.520Z,1008.78
2016-05-21T08:24:49.523Z,1008.82
2016-05-21T08:25:49.510Z,1008.86
2016-05-21T08:26:49.497Z,1008.83
2016-05-21T08:27:49.484Z,1008.81
2016-05-21T08:28:49.471Z,1008.79
2016-05-21T08:29:49.459Z,1008.79
2016-05-21T08:30:49.445Z,1008.79
2016-05-21T08:31:49.433Z,1008.8
2016-05-21T08:32:49.419Z,1008.83
2016-05-21T08:33:49.406Z,1008.87
2016-05-21T08:34:49.394Z,1008.83
2016-05-21T08:35:49.381Z,1008.8
2016-05-21T08:36:49.368Z,1008.79
2016-05-21T08:37:49.355Z,1008.76
2016-05-21T08:38:49.342Z,1008.77
2016-05-21T08:39:49.329Z,1008.72
2016-05-21T08:40:49.316Z,1008.74
2016-05-21T08:41:49.319Z,1008.82
2016-05-21T08:42:49.290Z,1008.75
2016-05-21T08:43:49.277Z,1008.75
2016-05-21T08:44:49.280Z,1008.74
2016-05-21T08:45:49.266Z,1008.77
2016-05-21T08:46:49.254Z,1008.79
2016-05-21T08:47:49.241Z,1008.74
2016-05-21T08:48:49.229Z,1008.74
2016-05-21T08:49:49.215Z,1008.71
2016-05-21T08:50:49.202Z,1008.76
2016-05-21T08:51:49.189Z,1008.73
2016-05-21T08:52:49.192Z,1008.79
2016-05-21T08:53:49.179Z,1008.74
2016-05-21T08:54:49.166Z,1008.71
2016-05-21T08:55:49.137Z,1008.75
2016-05-21T08:56:49.140Z,1008.77
2016-05-21T08:57:49.128Z,1008.78
2016-05-21T08:58:49.115Z,1008.77
2016-05-21T08:59:49.117Z,1008.74
2016-05-21T09:00:49.089Z,1008.74
2016-05-21T09:01:49.075Z,1008.81
2016-05-21T09:02:49.063Z,1008.71
2016-05-21T09:03:49.050Z,1008.77
2016-05-21T09:04:49.036Z,1008.79
2016-05-21T09:05:49.025Z,1008.79
2016-05-21T09:06:49.011Z,1008.8
2016-05-21T09:07:48.998Z,1008.85
2016-05-21T09:08:48.986Z,1008.85
2016-05-21T09:09:48.973Z,1008.84
2016-05-21T09:10:48.959Z,1008.83
2016-05-21T09:11:48.947Z,1008.76
2016-05-21T09:12:48.933Z,1008.84
2016-05-21T09:13:48.921Z,1008.82
2016-05-21T09:14:48.908Z,1008.78
2016-05-21T09:15:48.894Z,1008.79
2016-05-21T09:16:48.882Z,1008.8
2016-05-21T09:17:48.891Z,1008.79
2016-05-21T09:18:48.899Z,1008.73
2016-05-21T09:19:48.907Z,1008.76
2016-05-21T09:20:48.915Z,1008.77
2016-05-21T09:21:48.939Z,1008.76
2016-05-21T09:22:48.917Z,1008.74
2016-05-21T09:23:48.912Z,1008.68
2016-05-21T09:24:48.923Z,1008.7
2016-05-21T09:25:48.902Z,1008.69
2016-05-21T09:26:48.896Z,1008.68
2016-05-21T09:27:48.886Z,1008.66
2016-05-21T09:28:48.875Z,1008.65
2016-05-21T09:29:48.866Z,1008.63
2016-05-21T09:30:48.855Z,1008.61
2016-05-21T09:31:48.845Z,1008.63
2016-05-21T09:32:48.834Z,1008.6
2016-05-21T09:33:48.837Z,1008.58
2016-05-21T09:34:48.810Z,1008.55
2016-05-21T09:35:48.798Z,1008.51
2016-05-21T09:36:48.786Z,1008.5
2016-05-21T09:37:48.789Z,1008.51
2016-05-21T09:38:48.778Z,1008.48
2016-05-21T09:39:48.764Z,1008.41
2016-05-21T09:40:48.736Z,1008.43
2016-05-21T09:41:48.740Z,1008.34
2016-05-21T09:42:48.727Z,1008.4
2016-05-21T09:43:48.713Z,1008.33
2016-05-21T09:44:48.700Z,1008.28
2016-05-21T09:45:48.687Z,1008.29
2016-05-21T09:46:48.675Z,1008.24
2016-05-21T09:47:48.662Z,1008.22
2016-05-21T09:48:48.649Z,1008.22
2016-05-21T09:49:48.635Z,1008.23
2016-05-21T09:50:48.623Z,1008.25
2016-05-21T09:51:48.609Z,1008.26
2016-05-21T09:52:48.597Z,1008.23
2016-05-21T09:53:48.583Z,1008.26
2016-05-21T09:54:48.571Z,1008.25
2016-05-21T09:55:48.558Z,1008.18
2016-05-21T09:56:48.544Z,1008.24
2016-05-21T09:57:48.532Z,1008.25
2016-05-21T09:58:48.519Z,1008.24
2016-05-21T09:59:48.506Z,1008.21
2016-05-21T10:00:48.493Z,1008.2
2016-05-21T10:01:48.480Z,1008.2
2016-05-21T10:02:48.468Z,1008.16
2016-05-21T10:03:48.455Z,1008.2
2016-05-21T10:04:48.441Z,1008.21
2016-05-21T10:05:48.429Z,1008.22
2016-05-21T10:06:48.416Z,1008.21
2016-05-21T10:07:48.402Z,1008.14
2016-05-21T10:08:48.390Z,1008.2
2016-05-21T10:09:48.377Z,1008.13
2016-05-21T10:10:48.364Z,1008.16
2016-05-21T10:11:48.351Z,1008.13
2016-05-21T10:12:48.338Z,1008.12
2016-05-21T10:13:48.325Z,1008.13
2016-05-21T10:14:48.312Z,1008.06
2016-05-21T10:15:48.298Z,1008.07
2016-05-21T10:16:48.287Z,1008.06
2016-05-21T10:17:48.273Z,1008.08
2016-05-21T10:18:48.260Z,1008.11
2016-05-21T10:19:48.247Z,1008.05
2016-05-21T10:20:48.235Z,1008.07
2016-05-21T10:21:48.222Z,1008.03
2016-05-21T10:22:48.209Z,1008.05
2016-05-21T10:23:48.196Z,1008.01
2016-05-21T10:24:48.183Z,1007.97
2016-05-21T10:25:48.169Z,1008.05
2016-05-21T10:26:48.157Z,1008.03
2016-05-21T10:27:48.144Z,1008.03
2016-05-21T10:28:48.131Z,1007.99
2016-05-21T10:29:48.118Z,1007.98
2016-05-21T10:30:48.105Z,1007.96
2016-05-21T10:32:48.080Z,1007.98
2016-05-21T10:33:48.066Z,1007.99
2016-05-21T10:34:48.054Z,1007.95
2016-05-21T10:35:48.041Z,1007.95
2016-05-21T10:36:48.028Z,1007.92
2016-05-21T10:37:48.015Z,1007.91
2016-05-21T10:38:48.002Z,1007.91
2016-05-21T10:39:47.989Z,1007.92
2016-05-21T10:40:47.976Z,1007.9
2016-05-21T10:41:47.978Z,1007.89
2016-05-21T10:42:47.950Z,1007.84
2016-05-21T10:43:47.937Z,1007.85
2016-05-21T10:44:47.924Z,1007.81
2016-05-21T10:45:47.911Z,1007.82
2016-05-21T10:46:47.898Z,1007.81
2016-05-21T10:47:47.885Z,1007.84
2016-05-21T10:48:47.873Z,1007.83
2016-05-21T10:49:47.859Z,1007.88
2016-05-21T10:50:47.847Z,1007.84
2016-05-21T10:51:47.834Z,1007.85
2016-05-21T10:52:47.821Z,1007.8
2016-05-21T10:53:47.808Z,1007.8
2016-05-21T10:54:47.811Z,1007.81
2016-05-21T10:55:47.782Z,1007.82
2016-05-21T10:56:47.770Z,1007.78
2016-05-21T10:57:47.755Z,1007.78
2016-05-21T10:58:47.744Z,1007.74
2016-05-21T10:59:47.730Z,1007.67
2016-05-21T11:00:47.717Z,1007.66
2016-05-21T11:01:47.704Z,1007.68
2016-05-21T11:02:47.692Z,1007.68
2016-05-21T11:03:47.678Z,1007.71
2016-05-21T11:04:47.665Z,1007.72
2016-05-21T11:05:47.652Z,1007.68
2016-05-21T11:06:47.640Z,1007.7
2016-05-21T11:07:47.627Z,1007.72
2016-05-21T11:08:47.613Z,1007.71
2016-05-21T11:09:47.616Z,1007.71
2016-05-21T11:10:47.588Z,1007.69
2016-05-21T11:11:47.575Z,1007.66
2016-05-21T11:12:47.577Z,1007.65
2016-05-21T11:13:47.549Z,1007.64
2016-05-21T11:14:47.537Z,1007.64
2016-05-21T11:15:47.523Z,1007.64
2016-05-21T11:16:47.510Z,1007.56
2016-05-21T11:17:47.498Z,1007.57
2016-05-21T11:18:47.484Z,1007.6
2016-05-21T11:19:47.471Z,1007.6
2016-05-21T11:20:47.459Z,1007.61
2016-05-21T11:21:47.445Z,1007.66
2016-05-21T11:22:47.433Z,1007.69
2016-05-21T11:23:47.404Z,1007.72
2016-05-21T11:24:47.406Z,1007.65
2016-05-21T11:25:47.394Z,1007.67
2016-05-21T11:26:47.380Z,1007.7
2016-05-21T11:27:47.353Z,1007.67
2016-05-21T11:28:47.355Z,1007.62
2016-05-21T11:29:47.342Z,1007.64
2016-05-21T11:30:47.313Z,1007.6
2016-05-21T11:31:47.300Z,1007.59
2016-05-21T11:32:47.303Z,1007.58
2016-05-21T11:33:47.291Z,1007.55
2016-05-21T11:34:47.261Z,1007.5
2016-05-21T11:35:47.249Z,1007.49
2016-05-21T11:36:47.236Z,1007.49
2016-05-21T11:37:47.224Z,1007.48
2016-05-21T11:38:47.210Z,1007.5
2016-05-21T11:39:47.197Z,1007.47
2016-05-21T11:40:47.184Z,1007.49
2016-05-21T11:41:47.171Z,1007.49
2016-05-21T11:42:47.157Z,1007.46
2016-05-21T11:43:47.146Z,1007.45
2016-05-21T11:44:47.132Z,1007.43
2016-05-21T11:45:47.120Z,1007.49
2016-05-21T11:46:47.107Z,1007.49
2016-05-21T11:47:47.094Z,1007.47
2016-05-21T11:48:47.081Z,1007.46
2016-05-21T11:49:47.068Z,1007.45
2016-05-21T11:50:47.054Z,1007.48
2016-05-21T11:51:47.042Z,1007.43
2016-05-21T11:52:47.045Z,1007.39
2016-05-21T11:53:47.016Z,1007.4
2016-05-21T11:54:47.003Z,1007.38
2016-05-21T11:55:46.990Z,1007.4
2016-05-21T11:56:47.415Z,1007.41
2016-05-21T11:57:46.964Z,1007.37
2016-05-21T11:58:46.951Z,1007.42
2016-05-21T11:59:46.938Z,1007.4
2016-05-21T12:00:46.925Z,1007.42
2016-05-21T12:01:46.912Z,1007.43
2016-05-21T12:02:46.900Z,1007.39
2016-05-21T12:03:46.887Z,1007.43
2016-05-21T12:04:46.874Z,1007.37
2016-05-21T12:05:46.860Z,1007.45
2016-05-21T12:06:46.847Z,1007.5
2016-05-21T12:07:46.819Z,1007.42
2016-05-21T12:08:46.822Z,1007.39
2016-05-21T12:09:46.794Z,1007.38